createdAt,value
2023-03-06T00:00:46.567Z,1204.00
2023-03-06T00:01:46.620Z,1211.00
2023-03-06T00:02:46.608Z,1201.00
2023-03-06T00:03:46.645Z,1197.00
2023-03-06T00:04:46.708Z,1199.00
2023-03-06T00:05:46.715Z,1209.00
2023-03-06T00:06:46.721Z,1199.00
2023-03-06T00:07:46.771Z,1215.00
2023-03-06T00:08:46.770Z,1192.00
2023-03-06T00:09:46.795Z,1194.00
2023-03-06T00:10:46.841Z,1196.00
2023-03-06T00:11:46.852Z,1188.00
2023-03-06T00:12:46.932Z,1182.00
2023-03-06T00:13:46.929Z,1206.00
2023-03-06T00:14:46.947Z,1152.00
2023-03-06T00:15:46.995Z,1184.00
2023-03-06T00:16:46.990Z,1175.00
2023-03-06T00:17:47.013Z,1167.00
2023-03-06T00:18:47.056Z,1178.00
2023-03-06T00:19:47.054Z,1167.00
2023-03-06T00:20:47.123Z,1125.00
2023-03-06T00:21:47.113Z,1155.00
2023-03-06T00:22:47.159Z,1146.00
2023-03-06T00:23:47.167Z,1150.00
2023-03-06T00:24:47.210Z,1161.00
2023-03-06T00:25:47.213Z,1143.00
2023-03-06T00:26:47.268Z,1120.00
2023-03-06T00:27:47.276Z,1145.00
2023-03-06T00:28:47.304Z,1170.00
2023-03-06T00:29:47.360Z,1156.00
2023-03-06T00:30:47.363Z,1133.00
2023-03-06T00:31:47.435Z,1162.00
2023-03-06T00:32:47.412Z,1174.00
2023-03-06T00:33:47.439Z,1147.00
2023-03-06T00:34:47.460Z,1150.00
2023-03-06T00:35:47.529Z,1155.00
2023-03-06T00:36:47.501Z,1162.00
2023-03-06T00:37:47.552Z,1158.00
2023-03-06T00:38:47.560Z,1108.00
2023-03-06T00:39:47.607Z,1116.00
2023-03-06T00:40:47.629Z,1134.00
2023-03-06T00:41:47.656Z,1121.00
2023-03-06T00:42:47.699Z,1114.00
2023-03-06T00:43:47.676Z,1154.00
2023-03-06T00:44:47.697Z,1144.00
2023-03-06T00:45:47.787Z,1125.00
2023-03-06T00:46:47.749Z,1137.00
2023-03-06T00:47:47.783Z,1117.00
2023-03-06T00:48:47.819Z,1139.00
2023-03-06T00:49:47.829Z,1122.00
2023-03-06T00:50:47.841Z,1132.00
2023-03-06T00:51:47.874Z,1142.00
2023-03-06T00:52:47.916Z,1146.00
2023-03-06T00:53:47.936Z,1130.00
2023-03-06T00:54:47.968Z,1128.00
2023-03-06T00:55:47.964Z,1141.00
2023-03-06T00:56:48.009Z,1129.00
2023-03-06T00:57:48.048Z,1146.00
2023-03-06T00:58:48.045Z,1143.00
2023-03-06T00:59:48.069Z,1143.00
2023-03-06T01:00:48.174Z,1128.00
2023-03-06T01:01:48.159Z,1149.00
2023-03-06T01:02:48.127Z,1149.00
2023-03-06T01:03:48.198Z,1153.00
2023-03-06T01:04:48.184Z,1136.00
2023-03-06T01:05:48.209Z,1134.00
2023-03-06T01:06:48.231Z,1136.00
2023-03-06T01:07:48.267Z,1124.00
2023-03-06T01:08:48.290Z,1135.00
2023-03-06T01:09:48.304Z,1128.00
2023-03-06T01:10:48.382Z,1109.00
2023-03-06T01:11:48.374Z,1131.00
2023-03-06T01:12:48.415Z,1132.00
2023-03-06T01:13:48.428Z,1138.00
2023-03-06T01:14:48.469Z,1120.00
2023-03-06T01:15:48.511Z,1121.00
2023-03-06T01:16:48.529Z,1113.00
2023-03-06T01:17:48.557Z,1132.00
2023-03-06T01:18:48.573Z,1112.00
2023-03-06T01:19:48.573Z,1107.00
2023-03-06T01:20:48.617Z,1108.00
2023-03-06T01:21:48.643Z,1125.00
2023-03-06T01:22:48.657Z,1125.00
2023-03-06T01:23:48.690Z,1113.00
2023-03-06T01:24:48.716Z,1110.00
2023-03-06T01:25:48.718Z,1101.00
2023-03-06T01:26:48.763Z,1078.00
2023-03-06T01:27:48.800Z,1084.00
2023-03-06T01:28:48.813Z,1109.00
2023-03-06T01:29:48.824Z,1104.00
2023-03-06T01:30:48.884Z,1077.00
2023-03-06T01:31:48.933Z,1085.00
2023-03-06T01:32:48.936Z,1080.00
2023-03-06T01:33:48.982Z,1082.00
2023-03-06T01:34:49.019Z,1080.00
2023-03-06T01:35:49.071Z,1061.00
2023-03-06T01:36:49.085Z,1080.00
2023-03-06T01:37:49.093Z,1073.00
2023-03-06T01:38:49.141Z,1084.00
2023-03-06T01:39:49.144Z,1076.00
2023-03-06T01:40:49.187Z,1083.00
2023-03-06T01:41:49.206Z,1067.00
2023-03-06T01:42:49.231Z,1102.00
2023-03-06T01:43:49.302Z,1082.00
2023-03-06T01:44:49.300Z,1044.00
2023-03-06T01:45:49.410Z,1023.00
2023-03-06T01:46:49.377Z,1043.00
2023-03-06T01:47:49.395Z,1016.00
2023-03-06T01:48:49.408Z,1032.00
2023-03-06T01:49:49.466Z,1041.00
2023-03-06T01:50:49.475Z,1038.00
2023-03-06T01:51:49.509Z,1029.00
2023-03-06T01:52:49.567Z,1046.00
2023-03-06T01:53:49.617Z,1038.00
2023-03-06T01:54:49.598Z,1068.00
2023-03-06T01:55:49.648Z,1037.00
2023-03-06T01:56:49.674Z,1020.00
2023-03-06T01:57:49.715Z,1000.00
2023-03-06T01:58:49.740Z,1028.00
2023-03-06T01:59:49.804Z,976.00
2023-03-06T02:00:49.836Z,968.00
2023-03-06T02:01:49.868Z,989.00
2023-03-06T02:02:49.911Z,1004.00
2023-03-06T02:03:49.916Z,994.00
2023-03-06T02:04:49.931Z,988.00
2023-03-06T02:05:49.987Z,1012.00
2023-03-06T02:06:49.987Z,997.00
2023-03-06T02:07:50.043Z,1002.00
2023-03-06T02:08:50.066Z,1000.00
2023-03-06T02:09:50.088Z,1030.00
2023-03-06T02:10:50.115Z,1037.00
2023-03-06T02:11:50.144Z,1051.00
2023-03-06T02:12:50.157Z,1063.00
2023-03-06T02:13:50.177Z,1057.00
2023-03-06T02:14:50.218Z,1029.00
2023-03-06T02:15:50.239Z,1030.00
2023-03-06T02:16:50.280Z,1034.00
2023-03-06T02:17:50.280Z,1015.00
2023-03-06T02:18:50.290Z,1026.00
2023-03-06T02:19:50.302Z,1028.00
2023-03-06T02:20:50.299Z,1027.00
2023-03-06T02:21:50.350Z,1041.00
2023-03-06T02:22:50.332Z,1043.00
2023-03-06T02:23:50.376Z,1053.00
2023-03-06T02:24:50.339Z,1046.00
2023-03-06T02:25:50.351Z,1061.00
2023-03-06T02:26:50.349Z,1065.00
2023-03-06T02:29:50.352Z,1063.00
2023-03-06T02:30:50.387Z,1072.00
2023-03-06T02:31:50.314Z,1088.00
2023-03-06T02:32:50.375Z,1087.00
2023-03-06T02:33:50.374Z,1094.00
2023-03-06T02:34:50.386Z,1091.00
2023-03-06T02:35:50.423Z,1094.00
2023-03-06T02:36:50.432Z,1083.00
2023-03-06T02:37:50.471Z,1083.00
2023-03-06T02:38:50.472Z,1077.00
2023-03-06T02:39:50.488Z,1088.00
2023-03-06T02:40:50.533Z,1091.00
2023-03-06T02:41:50.586Z,1093.00
2023-03-06T02:42:50.613Z,1089.00
2023-03-06T02:43:50.668Z,1080.00
2023-03-06T02:44:50.727Z,1070.00
2023-03-06T02:45:50.853Z,1065.00
2023-03-06T02:46:50.850Z,1077.00
2023-03-06T02:47:50.949Z,1088.00
2023-03-06T02:48:50.992Z,1084.00
2023-03-06T02:49:51.053Z,1073.00
2023-03-06T02:50:51.124Z,1079.00
2023-03-06T02:51:51.176Z,1073.00
2023-03-06T02:52:51.232Z,1080.00
2023-03-06T02:53:51.290Z,1094.00
2023-03-06T02:54:51.408Z,1083.00
2023-03-06T02:55:51.406Z,1097.00
2023-03-06T02:56:51.491Z,1077.00
2023-03-06T02:57:51.532Z,1075.00
2023-03-06T02:58:51.574Z,1072.00
2023-03-06T02:59:51.652Z,1085.00
2023-03-06T03:00:51.699Z,1086.00
2023-03-06T03:01:51.832Z,1092.00
2023-03-06T03:02:51.803Z,1060.00
2023-03-06T03:03:51.849Z,1058.00
2023-03-06T03:04:51.946Z,1066.00
2023-03-06T03:05:51.950Z,1073.00
2023-03-06T03:06:52.013Z,1068.00
2023-03-06T03:07:52.038Z,1074.00
2023-03-06T03:08:52.129Z,1083.00
2023-03-06T03:09:52.185Z,1072.00
2023-03-06T03:10:52.205Z,1065.00
2023-03-06T03:11:52.244Z,1072.00
2023-03-06T03:12:52.266Z,1082.00
2023-03-06T03:13:52.445Z,1084.00
2023-03-06T03:14:52.364Z,1073.00
2023-03-06T03:15:52.438Z,1081.00
2023-03-06T03:16:52.502Z,1076.00
2023-03-06T03:17:52.510Z,1076.00
2023-03-06T03:18:52.556Z,1101.00
2023-03-06T03:19:52.628Z,1108.00
2023-03-06T03:20:52.700Z,1115.00
2023-03-06T03:21:52.707Z,1107.00
2023-03-06T03:22:52.750Z,1116.00
2023-03-06T03:23:52.776Z,1110.00
2023-03-06T03:24:52.946Z,1129.00
2023-03-06T03:25:52.879Z,1134.00
2023-03-06T03:26:52.888Z,1141.00
2023-03-06T03:27:52.979Z,1136.00
2023-03-06T03:28:53.039Z,1150.00
2023-03-06T03:29:53.031Z,1148.00
2023-03-06T03:30:53.138Z,1159.00
2023-03-06T03:31:53.113Z,1164.00
2023-03-06T03:32:53.154Z,1181.00
2023-03-06T03:33:53.176Z,1153.00
2023-03-06T03:34:53.285Z,1182.00
2023-03-06T03:35:53.275Z,1146.00
2023-03-06T05:19:56.169Z,1154.00
2023-03-06T05:27:56.425Z,1152.00
2023-03-06T05:28:56.479Z,1160.00
2023-03-06T05:29:56.509Z,1153.00
2023-03-06T05:30:56.528Z,1144.00
2023-03-06T05:31:56.639Z,1160.00
2023-03-06T05:32:56.614Z,1158.00
2023-03-06T05:33:56.617Z,1167.00
2023-03-06T05:34:56.662Z,1173.00
2023-03-06T05:35:56.753Z,1171.00
2023-03-06T05:36:56.754Z,1154.00
2023-03-06T05:37:56.797Z,1162.00
2023-03-06T05:38:56.824Z,1170.00
2023-03-06T05:39:56.858Z,1159.00
2023-03-06T05:40:56.920Z,1167.00
2023-03-06T05:41:56.948Z,1151.00
2023-03-06T05:42:56.953Z,1169.00
2023-03-06T05:43:56.999Z,1177.00
2023-03-06T05:44:57.024Z,1171.00
2023-03-06T05:45:57.114Z,1178.00
2023-03-06T05:46:57.080Z,1167.00
2023-03-06T05:47:57.140Z,1179.00
2023-03-06T05:48:57.163Z,1176.00
2023-03-06T05:49:57.190Z,1179.00
2023-03-06T05:50:57.218Z,1175.00
2023-03-06T05:51:57.262Z,1160.00
2023-03-06T05:52:57.293Z,1185.00
2023-03-06T05:53:57.330Z,1196.00
2023-03-06T05:54:57.360Z,1175.00
2023-03-06T05:55:57.383Z,1181.00
2023-03-06T05:56:57.423Z,1183.00
2023-03-06T05:57:57.465Z,1170.00
2023-03-06T05:58:57.502Z,1177.00
2023-03-06T05:59:57.538Z,1189.00
2023-03-06T06:01:04.928Z,1179.00
2023-03-06T06:02:57.603Z,1182.00
2023-03-06T06:03:57.601Z,1185.00
2023-03-06T06:04:57.626Z,1188.00
2023-03-06T06:05:57.543Z,1197.00
2023-03-06T06:06:57.514Z,1198.00
2023-03-06T06:07:57.519Z,1174.00
2023-03-06T06:25:58.003Z,1200.00
2023-03-06T06:35:57.932Z,1277.00
2023-03-06T06:36:57.959Z,1314.00
2023-03-06T06:37:57.993Z,1335.00
2023-03-06T06:38:58.046Z,1363.00
2023-03-06T06:39:58.172Z,1392.00
2023-03-06T06:41:29.149Z,1431.00
2023-03-06T06:42:15.463Z,1433.00
2023-03-06T06:42:59.149Z,1434.00
2023-03-06T06:43:59.121Z,1452.00
2023-03-06T06:44:58.139Z,1482.00
2023-03-06T06:46:28.274Z,1535.00
2023-03-06T06:47:28.214Z,1438.00
2023-03-06T06:47:59.225Z,1440.00
2023-03-06T06:48:58.230Z,1475.00
2023-03-06T06:49:58.145Z,1538.00
2023-03-06T06:50:58.131Z,1651.00
2023-03-06T06:51:58.081Z,1791.00
2023-03-06T06:52:58.107Z,1842.00
2023-03-06T06:53:58.075Z,1849.00
2023-03-06T06:54:58.061Z,1872.00
2023-03-06T06:55:58.070Z,1918.00
2023-03-06T06:56:58.043Z,1942.00
2023-03-06T06:57:58.053Z,1961.00
2023-03-06T06:59:14.004Z,1986.00
2023-03-06T06:59:59.006Z,1988.00
2023-03-06T07:00:58.047Z,1998.00
2023-03-06T07:01:58.049Z,2025.00
2023-03-06T07:02:58.035Z,2059.00
2023-03-06T07:03:58.067Z,2128.00
2023-03-06T07:05:04.172Z,2155.00
2023-03-06T07:05:59.009Z,2156.00
2023-03-06T07:06:57.972Z,2162.00
2023-03-06T07:07:57.989Z,2177.00
2023-03-06T07:08:58.021Z,2210.00
2023-03-06T07:09:57.966Z,2264.00
2023-03-06T07:10:57.935Z,2288.00
2023-03-06T07:11:57.978Z,2290.00
2023-03-06T07:12:57.953Z,2316.00
2023-03-06T07:13:57.924Z,2316.00
2023-03-06T07:14:57.938Z,2334.00
2023-03-06T07:15:58.058Z,2363.00
2023-03-06T07:16:57.969Z,2362.00
2023-03-06T07:17:57.912Z,2377.00
2023-03-06T07:18:57.926Z,2390.00
2023-03-06T07:19:57.884Z,2421.00
2023-03-06T07:20:59.822Z,2423.00
2023-03-06T07:21:57.895Z,2449.00
2023-03-06T07:22:57.889Z,2459.00
2023-03-06T07:23:58.459Z,2466.00
2023-03-06T07:24:57.855Z,2487.00
2023-03-06T07:25:57.872Z,2496.00
2023-03-06T07:26:57.836Z,2511.00
2023-03-06T07:27:57.841Z,2517.00
2023-03-06T07:28:57.815Z,2521.00
2023-03-06T07:29:57.810Z,2532.00
2023-03-06T07:30:57.829Z,2542.00
2023-03-06T07:31:57.820Z,2534.00
2023-03-06T07:32:57.777Z,2571.00
2023-03-06T07:33:57.824Z,2577.00
2023-03-06T07:35:57.786Z,2614.00
2023-03-06T07:36:57.996Z,2625.00
2023-03-06T07:37:57.752Z,2612.00
2023-03-06T07:38:57.757Z,2605.00
2023-03-06T07:39:57.717Z,2594.00
2023-03-06T07:40:57.729Z,2592.00
2023-03-06T07:41:58.039Z,2580.00
2023-03-06T07:43:09.172Z,2576.00
2023-03-06T07:43:58.734Z,2578.00
2023-03-06T07:44:57.736Z,2582.00
2023-03-06T07:45:57.765Z,2582.00
2023-03-06T07:46:57.778Z,2593.00
2023-03-06T07:47:57.674Z,2615.00
2023-03-06T07:48:57.684Z,2618.00
2023-03-06T07:49:57.696Z,2623.00
2023-03-06T07:50:57.677Z,2650.00
2023-03-06T07:51:58.055Z,2650.00
2023-03-06T07:52:57.664Z,2670.00
2023-03-06T07:53:57.625Z,2683.00
2023-03-06T07:54:57.658Z,2711.00
2023-03-06T07:55:57.918Z,2713.00
2023-03-06T07:56:58.522Z,2718.00
2023-03-06T07:57:57.600Z,2700.00
2023-03-06T07:58:57.625Z,2677.00
2023-03-06T07:59:57.628Z,2641.00
2023-03-06T08:00:57.602Z,2617.00
2023-03-06T08:01:57.627Z,2605.00
2023-03-06T08:02:57.666Z,2573.00
2023-03-06T08:03:57.790Z,2530.00
2023-03-06T08:04:57.713Z,2528.00
2023-03-06T08:06:57.984Z,2477.00
2023-03-06T08:07:57.685Z,2456.00
2023-03-06T08:08:57.699Z,2432.00
2023-03-06T08:09:57.719Z,2398.00
2023-03-06T08:10:57.668Z,2387.00
2023-03-06T08:11:57.697Z,2374.00
2023-03-06T08:12:57.689Z,2350.00
2023-03-06T08:13:57.691Z,2349.00
2023-03-06T08:14:57.715Z,2339.00
2023-03-06T08:15:57.750Z,2320.00
2023-03-06T08:16:57.711Z,2309.00
2023-03-06T08:17:57.967Z,2298.00
2023-03-06T08:21:57.695Z,2241.00
2023-03-06T08:22:57.977Z,2216.00
2023-03-06T08:23:57.703Z,2218.00
2023-03-06T08:24:57.756Z,2200.00
2023-03-06T08:25:57.711Z,2201.00
2023-03-06T08:26:57.751Z,2188.00
2023-03-06T08:27:57.992Z,2180.00
2023-03-06T08:28:57.762Z,2166.00
2023-03-06T08:29:57.794Z,2148.00
2023-03-06T08:30:57.822Z,2148.00
2023-03-06T08:31:57.804Z,2130.00
2023-03-06T08:32:57.965Z,2114.00
2023-03-06T08:33:58.031Z,1589.00
2023-03-06T08:34:57.901Z,1386.00
2023-03-06T08:35:58.806Z,1148.00
2023-03-06T08:36:57.977Z,1096.00
2023-03-06T08:37:58.571Z,1216.00
2023-03-06T08:38:58.088Z,1276.00
2023-03-06T08:39:58.094Z,1304.00
2023-03-06T08:40:58.083Z,1408.00
2023-03-06T08:41:58.102Z,1775.00
2023-03-06T08:42:58.547Z,1762.00
2023-03-06T08:43:58.211Z,1807.00
2023-03-06T08:44:58.205Z,1882.00
2023-03-06T08:45:58.233Z,1986.00
2023-03-06T08:46:58.282Z,2018.00
2023-03-06T08:47:58.555Z,2048.00
2023-03-06T08:48:58.437Z,2065.00
2023-03-06T08:50:00.180Z,2097.00
2023-03-06T08:50:58.451Z,2138.00
2023-03-06T08:51:58.414Z,2162.00
2023-03-06T08:52:58.514Z,2216.00
2023-03-06T08:53:58.472Z,2234.00
2023-03-06T08:54:58.516Z,2274.00
2023-03-06T08:55:58.568Z,2279.00
2023-03-06T08:56:58.581Z,2313.00
2023-03-06T08:57:58.600Z,2330.00
2023-03-06T08:58:58.594Z,2363.00
2023-03-06T08:59:58.613Z,2370.00
2023-03-06T09:00:58.745Z,2388.00
2023-03-06T09:01:58.640Z,2533.00
2023-03-06T09:02:58.750Z,2718.00
2023-03-06T09:03:58.773Z,2646.00
2023-03-06T09:04:58.834Z,2641.00
2023-03-06T09:05:58.878Z,2622.00
2023-03-06T09:06:58.948Z,2634.00
2023-03-06T09:07:58.966Z,2629.00
2023-03-06T09:08:58.966Z,2622.00
2023-03-06T09:09:59.015Z,2633.00
2023-03-06T09:10:59.121Z,2657.00
2023-03-06T09:11:59.994Z,2631.00
2023-03-06T09:12:59.108Z,2630.00
2023-03-06T09:13:59.119Z,2622.00
2023-03-06T09:14:59.161Z,2641.00
2023-03-06T09:15:59.163Z,2642.00
2023-03-06T09:16:59.165Z,2650.00
2023-03-06T09:17:59.184Z,2648.00
2023-03-06T09:18:59.140Z,2662.00
2023-03-06T09:19:59.157Z,2672.00
2023-03-06T09:20:59.152Z,2667.00
2023-03-06T09:21:59.116Z,2676.00
2023-03-06T09:22:59.103Z,2669.00
2023-03-06T09:23:59.149Z,2678.00
2023-03-06T09:24:59.182Z,2683.00
2023-03-06T09:25:59.199Z,2676.00
2023-03-06T09:26:59.203Z,2701.00
2023-03-06T09:28:10.788Z,2697.00
2023-03-06T09:29:00.236Z,2699.00
2023-03-06T09:29:59.180Z,2699.00
2023-03-06T09:30:59.372Z,2704.00
2023-03-06T09:31:59.184Z,2702.00
2023-03-06T09:32:59.509Z,2478.00
2023-03-06T09:33:59.184Z,1866.00
2023-03-06T09:34:59.179Z,1666.00
2023-03-06T09:35:59.269Z,1575.00
2023-03-06T09:37:59.526Z,1648.00
2023-03-06T09:38:59.241Z,1672.00
2023-03-06T09:39:59.505Z,1642.00
2023-03-06T09:40:59.106Z,1668.00
2023-03-06T09:41:59.465Z,1697.00
2023-03-06T09:42:59.209Z,1729.00
2023-03-06T09:43:59.177Z,1783.00
2023-03-06T09:44:59.189Z,1816.00
2023-03-06T09:45:59.294Z,1833.00
2023-03-06T09:46:59.323Z,1830.00
2023-03-06T09:47:59.339Z,1850.00
2023-03-06T09:48:59.348Z,1859.00
2023-03-06T09:49:59.400Z,1831.00
2023-03-06T09:50:59.764Z,1871.00
2023-03-06T09:51:59.412Z,1881.00
2023-03-06T09:52:59.442Z,1884.00
2023-03-06T09:53:59.520Z,1884.00
2023-03-06T09:54:59.473Z,1863.00
2023-03-06T09:55:59.512Z,1878.00
2023-03-06T09:56:59.551Z,1884.00
2023-03-06T09:57:59.565Z,1885.00
2023-03-06T09:59:00.030Z,1911.00
2023-03-06T10:00:01.009Z,1905.00
2023-03-06T10:00:59.723Z,1923.00
2023-03-06T10:01:59.795Z,1946.00
2023-03-06T10:02:59.886Z,1986.00
2023-03-06T10:03:59.859Z,1995.00
2023-03-06T10:04:59.882Z,2010.00
2023-03-06T10:06:02.429Z,2022.00
2023-03-06T10:06:59.929Z,2040.00
2023-03-06T10:07:59.921Z,2063.00
2023-03-06T10:08:59.915Z,2070.00
2023-03-06T10:09:59.905Z,2089.00
2023-03-06T10:10:59.919Z,2115.00
2023-03-06T10:11:59.900Z,2124.00
2023-03-06T10:12:59.850Z,2127.00
2023-03-06T10:14:00.056Z,2139.00
2023-03-06T10:14:59.874Z,2163.00
2023-03-06T10:15:59.903Z,2170.00
2023-03-06T10:16:59.830Z,2195.00
2023-03-06T10:17:59.834Z,2195.00
2023-03-06T10:18:59.845Z,2214.00
2023-03-06T10:19:59.893Z,2243.00
2023-03-06T10:21:13.427Z,2247.00
2023-03-06T10:22:00.804Z,2250.00
2023-03-06T10:23:03.160Z,2260.00
2023-03-06T10:24:01.058Z,2251.00
2023-03-06T10:24:59.822Z,2265.00
2023-03-06T10:25:59.881Z,2287.00
2023-03-06T10:26:59.931Z,2327.00
2023-03-06T10:27:59.846Z,2394.00
2023-03-06T10:28:59.746Z,2413.00
2023-03-06T10:30:03.339Z,2434.00
2023-03-06T10:30:59.858Z,2455.00
2023-03-06T10:31:59.841Z,2462.00
2023-03-06T10:32:59.874Z,2484.00
2023-03-06T10:33:59.796Z,2474.00
2023-03-06T10:34:59.787Z,2483.00
2023-03-06T10:35:59.803Z,2486.00
2023-03-06T10:36:59.795Z,2491.00
2023-03-06T10:37:59.754Z,2504.00
2023-03-06T10:38:59.822Z,2508.00
2023-03-06T10:39:59.793Z,2525.00
2023-03-06T10:40:59.749Z,2524.00
2023-03-06T10:41:59.704Z,1176.00
2023-03-06T10:43:11.191Z,400.00
2023-03-06T10:44:00.763Z,400.00
2023-03-06T10:44:59.760Z,400.00
2023-03-06T10:45:59.796Z,400.00
2023-03-06T10:46:59.733Z,419.00
2023-03-06T10:47:59.696Z,522.00
2023-03-06T10:49:00.095Z,748.00
2023-03-06T10:49:59.674Z,787.00
2023-03-06T10:51:01.115Z,819.00
2023-03-06T10:51:59.644Z,944.00
2023-03-06T10:53:00.530Z,1072.00
2023-03-06T10:53:59.739Z,1213.00
2023-03-06T10:54:59.640Z,1258.00
2023-03-06T10:55:59.629Z,1338.00
2023-03-06T10:56:59.654Z,1407.00
2023-03-06T10:57:59.620Z,1471.00
2023-03-06T10:59:00.177Z,1509.00
2023-03-06T10:59:59.613Z,1565.00
2023-03-06T11:00:59.595Z,1579.00
2023-03-06T11:01:59.659Z,1644.00
2023-03-06T11:02:59.600Z,1690.00
2023-03-06T11:03:59.585Z,1727.00
2023-03-06T11:04:59.642Z,1779.00
2023-03-06T11:05:59.533Z,1807.00
2023-03-06T11:06:59.530Z,1854.00
2023-03-06T11:07:59.597Z,1869.00
2023-03-06T11:09:59.525Z,1923.00
2023-03-06T11:10:59.515Z,1965.00
2023-03-06T11:11:59.505Z,1975.00
2023-03-06T11:12:59.482Z,1985.00
2023-03-06T11:13:59.584Z,2030.00
2023-03-06T11:14:59.534Z,2054.00
2023-03-06T11:15:59.471Z,2078.00
2023-03-06T11:16:59.472Z,2110.00
2023-03-06T11:17:59.496Z,2127.00
2023-03-06T11:18:59.544Z,2153.00
2023-03-06T11:19:59.466Z,2167.00
2023-03-06T11:20:59.440Z,2198.00
2023-03-06T11:21:59.478Z,2207.00
2023-03-06T11:22:59.643Z,2216.00
2023-03-06T11:23:59.606Z,2253.00
2023-03-06T11:24:59.429Z,2249.00
2023-03-06T11:25:59.445Z,2274.00
2023-03-06T11:26:59.395Z,2295.00
2023-03-06T11:27:59.389Z,2306.00
2023-03-06T11:28:59.460Z,2320.00
2023-03-06T11:29:59.467Z,2320.00
2023-03-06T11:30:59.589Z,2310.00
2023-03-06T11:31:59.624Z,2341.00
2023-03-06T11:32:59.618Z,2331.00
2023-03-06T11:33:59.723Z,2360.00
2023-03-06T11:35:00.176Z,2361.00
2023-03-06T11:35:59.828Z,2380.00
2023-03-06T11:36:59.823Z,2366.00
2023-03-06T11:37:59.912Z,2386.00
2023-03-06T11:38:59.936Z,2366.00
2023-03-06T11:40:00.008Z,2356.00
2023-03-06T11:41:00.001Z,2386.00
2023-03-06T11:41:59.965Z,2284.00
2023-03-06T11:43:00.381Z,2230.00
2023-03-06T11:44:00.372Z,2227.00
2023-03-06T11:45:01.314Z,2244.00
2023-03-06T11:46:00.103Z,2246.00
2023-03-06T11:47:00.166Z,2225.00
2023-03-06T11:48:00.145Z,2208.00
2023-03-06T11:49:00.120Z,2181.00
2023-03-06T11:50:00.580Z,2154.00
2023-03-06T11:51:00.177Z,2126.00
2023-03-06T11:52:00.264Z,2117.00
2023-03-06T11:53:00.219Z,2093.00
2023-03-06T11:54:00.284Z,2065.00
2023-03-06T11:55:00.703Z,2036.00
2023-03-06T11:56:00.332Z,2022.00
2023-03-06T11:57:00.333Z,2010.00
2023-03-06T11:58:00.376Z,1982.00
2023-03-06T11:59:00.405Z,1950.00
2023-03-06T12:00:00.449Z,1940.00
2023-03-06T12:01:00.517Z,1915.00
2023-03-06T12:02:00.743Z,1911.00
2023-03-06T12:03:00.542Z,1877.00
2023-03-06T12:04:00.609Z,1853.00
2023-03-06T12:05:01.203Z,1839.00
2023-03-06T12:06:00.695Z,1826.00
2023-03-06T12:07:00.743Z,1820.00
2023-03-06T12:08:00.782Z,1798.00
2023-03-06T12:09:00.864Z,1775.00
2023-03-06T12:10:00.901Z,1767.00
2023-03-06T12:11:00.932Z,1742.00
2023-03-06T12:12:00.976Z,1720.00
2023-03-06T12:13:01.063Z,1707.00
2023-03-06T12:14:03.616Z,1683.00
2023-03-06T12:15:01.135Z,1678.00
2023-03-06T12:16:01.032Z,1673.00
2023-03-06T12:17:01.080Z,1654.00
2023-03-06T12:18:01.117Z,1633.00
2023-03-06T12:19:01.094Z,1623.00
2023-03-06T12:20:01.104Z,1612.00
2023-03-06T12:21:01.043Z,1600.00
2023-03-06T12:22:01.058Z,1587.00
2023-03-06T12:23:14.645Z,1583.00
2023-03-06T12:24:02.052Z,1584.00
2023-03-06T12:25:01.058Z,1566.00
2023-03-06T12:26:01.046Z,1538.00
2023-03-06T12:27:01.002Z,1520.00
2023-03-06T12:28:00.982Z,1506.00
2023-03-06T12:29:00.998Z,1484.00
2023-03-06T12:30:01.196Z,1483.00
2023-03-06T12:31:00.977Z,1448.00
2023-03-06T12:32:01.081Z,1470.00
2023-03-06T12:33:00.956Z,1430.00
2023-03-06T12:34:00.960Z,1430.00
2023-03-06T12:35:01.188Z,1460.00
2023-03-06T12:36:00.939Z,1413.00
2023-03-06T12:37:00.904Z,1410.00
2023-03-06T12:38:00.949Z,1377.00
2023-03-06T12:39:00.942Z,1350.00
2023-03-06T12:40:00.937Z,1258.00
2023-03-06T12:41:00.895Z,1183.00
2023-03-06T12:42:00.946Z,1192.00
2023-03-06T12:43:00.918Z,1141.00
2023-03-06T12:44:00.910Z,1134.00
2023-03-06T12:45:00.956Z,1062.00
2023-03-06T12:46:00.930Z,1037.00
2023-03-06T12:47:00.928Z,1039.00
2023-03-06T12:48:00.924Z,1001.00
2023-03-06T12:49:00.934Z,992.00
2023-03-06T12:50:00.953Z,981.00
2023-03-06T12:51:00.949Z,940.00
2023-03-06T12:52:00.951Z,907.00
2023-03-06T12:53:00.915Z,891.00
2023-03-06T12:54:00.930Z,885.00
2023-03-06T12:55:00.902Z,889.00
2023-03-06T12:56:00.898Z,873.00
2023-03-06T12:57:00.918Z,852.00
2023-03-06T12:58:00.900Z,837.00
2023-03-06T12:59:00.899Z,848.00
2023-03-06T13:00:00.895Z,863.00
2023-03-06T13:01:04.732Z,833.00
2023-03-06T13:02:00.882Z,862.00
2023-03-06T13:03:00.879Z,858.00
2023-03-06T13:04:00.859Z,857.00
2023-03-06T13:05:00.868Z,833.00
2023-03-06T13:06:00.881Z,841.00
2023-03-06T13:07:00.864Z,904.00
2023-03-06T13:08:00.838Z,937.00
2023-03-06T13:09:00.824Z,2148.00
2023-03-06T13:10:00.855Z,1695.00
2023-03-06T13:11:00.795Z,1617.00
2023-03-06T13:12:00.834Z,1615.00
2023-03-06T13:13:00.896Z,1663.00
2023-03-06T13:14:00.789Z,1826.00
2023-03-06T13:15:00.870Z,1919.00
2023-03-06T13:16:00.776Z,1911.00
2023-03-06T13:17:00.781Z,1915.00
2023-03-06T13:18:00.783Z,1925.00
2023-03-06T13:19:00.737Z,1917.00
2023-03-06T13:20:00.722Z,1918.00
2023-03-06T13:21:00.742Z,1905.00
2023-03-06T13:22:00.770Z,1876.00
2023-03-06T13:23:00.768Z,1880.00
2023-03-06T13:24:00.725Z,1862.00
2023-03-06T13:25:08.164Z,1834.00
2023-03-06T13:26:01.737Z,1834.00
2023-03-06T13:27:00.716Z,1834.00
2023-03-06T13:28:00.682Z,1825.00
2023-03-06T13:29:00.684Z,1814.00
2023-03-06T13:30:00.691Z,1786.00
2023-03-06T13:31:00.731Z,1800.00
2023-03-06T13:32:00.752Z,1800.00
2023-03-06T13:33:00.628Z,1801.00
2023-03-06T13:34:00.657Z,1793.00
2023-03-06T13:35:00.643Z,1802.00
2023-03-06T13:36:00.659Z,1806.00
2023-03-06T13:37:00.621Z,1799.00
2023-03-06T13:38:00.595Z,1802.00
2023-03-06T13:39:00.604Z,1820.00
2023-03-06T13:40:00.623Z,1807.00
2023-03-06T13:41:00.621Z,1806.00
2023-03-06T13:42:00.558Z,1797.00
2023-03-06T13:43:00.564Z,1796.00
2023-03-06T13:44:00.576Z,1799.00
2023-03-06T13:45:00.561Z,1789.00
2023-03-06T13:46:00.576Z,1770.00
2023-03-06T13:47:00.580Z,1743.00
2023-03-06T13:48:27.244Z,1753.00
2023-03-06T13:49:01.522Z,1746.00
2023-03-06T13:50:00.521Z,1736.00
2023-03-06T13:51:00.525Z,1712.00
2023-03-06T13:52:00.545Z,1702.00
2023-03-06T13:53:00.493Z,1690.00
2023-03-06T13:54:00.518Z,1693.00
2023-03-06T13:55:00.484Z,1685.00
2023-03-06T13:56:00.495Z,1671.00
2023-03-06T13:57:00.455Z,1599.00
2023-03-06T13:58:00.478Z,1593.00
2023-03-06T13:59:00.477Z,1548.00
2023-03-06T14:00:08.559Z,1525.00
2023-03-06T14:01:01.476Z,1526.00
2023-03-06T14:02:00.444Z,1511.00
2023-03-06T14:03:00.466Z,1516.00
2023-03-06T14:04:00.485Z,1482.00
2023-03-06T14:05:00.411Z,1476.00
2023-03-06T14:06:00.421Z,1445.00
2023-03-06T14:07:00.394Z,1428.00
2023-03-06T14:08:00.397Z,1397.00
2023-03-06T14:09:00.369Z,1348.00
2023-03-06T14:10:00.361Z,1372.00
2023-03-06T14:11:00.379Z,1387.00
2023-03-06T14:12:00.356Z,1344.00
2023-03-06T14:13:00.373Z,1340.00
2023-03-06T14:14:00.336Z,1347.00
2023-03-06T14:15:00.345Z,1318.00
2023-03-06T14:16:00.403Z,1285.00
2023-03-06T14:17:00.327Z,1262.00
2023-03-06T14:18:00.319Z,1243.00
2023-03-06T14:19:00.318Z,1274.00
2023-03-06T14:20:00.314Z,1285.00
2023-03-06T14:21:00.293Z,1333.00
2023-03-06T14:22:00.303Z,1104.00
2023-03-06T14:23:00.268Z,1098.00
